Freeburg, Illinois
Current Conditions -  °F | °C
As of 3:23 AM on Monday 24 Nov 2014 (Local Time) from KBLV Reporting Station
Light Rain Light Rain  
Wind Chill: 36°   Ceiling: 1500
Heat Index: 45°   Visibility: 10mi
Dew Point: 45°   Wind: 23mph
Humidity: 100%   Direction: 280°W
Pressure: 29.29"   Gusts: 32mph
Location:  38.43°N, 89.91°W
Report Text: KBLV 240923Z AUTO 28020G28KT 10SM -RA BKN015 OVC021 07/07 A2929 RMK AO2 RAB0902E0903 PRESRR
Loading
Personal Weather Stations






























Interactive Weather Map New forecast layout! Learn more

10-Day Weather Forecast

Advertisements
Track Severe Weather on mobile